This is the latest recevied weather packets stored in our database for station/object NO9B. If no packets are shown the sender has not sent any weather packets the latest 10 day(s).
| Time | Temp. | Humidity | Pressure | Rain* | Wind** | Luminosity | Snow |
|---|---|---|---|---|---|---|---|
| 1787872749 | 23.89° C | 72% | 1018.3 hPa | 0 mm | - | 20 W/m² | - |
| 1787872446 | 23.89° C | 72% | 1018.3 hPa | 0 mm | - | 24 W/m² | - |
| 1787872140 | 23.89° C | 72% | 1018.3 hPa | 0 mm | - | 35 W/m² | - |
| 1787871839 | 24.44° C | 71% | 1018.3 hPa | 0 mm | - | 46 W/m² | - |
| 1787871534 | 25° C | 70% | 1018.3 hPa | 0 mm | - | 46 W/m² | - |
| 1787871230 | 25° C | 69% | 1018.5 hPa | 0 mm | - | 48 W/m² | - |
| 1787870925 | 25° C | 68% | 1018.2 hPa | 0 mm | - | 33 W/m² | - |
| 1787870624 | 25.56° C | 67% | 1018.2 hPa | 0 mm | - | 35 W/m² | - |
| 1787870320 | 25.56° C | 66% | 1018.3 hPa | 0 mm | - | 39 W/m² | - |
| 1787870015 | 26.11° C | 64% | 1018 hPa | 0 mm | - | 36 W/m² | - |
| 1787869714 | 26.67° C | 63% | 1018.2 hPa | 0 mm | - | 33 W/m² | - |
| 1787869413 | 27.22° C | 61% | 1018 hPa | 0 mm | - | 146 W/m² | - |
| 1787869108 | 27.22° C | 61% | 1018 hPa | 0 mm | - | 131 W/m² | - |
| 1787868807 | 27.78° C | 61% | 1018 hPa | 0 mm | - | 161 W/m² | - |
| 1787868506 | 28.33° C | 59% | 1018.2 hPa | 0 mm | - | 59 W/m² | - |
| 1787868205 | 27.78° C | 60% | 1018 hPa | 0 mm | - | 101 W/m² | - |
| 1787867901 | 27.78° C | 60% | 1017.9 hPa | 0 mm | - | 106 W/m² | - |
| 1787867596 | 27.78° C | 59% | 1017.9 hPa | 0 mm | - | 237 W/m² | - |
| 1787867296 | 27.78° C | 60% | 1017.9 hPa | 0 mm | - | 168 W/m² | - |
| 1787866993 | 27.78° C | 60% | 1017.8 hPa | 0 mm | - | 267 W/m² | - |
| 1787866687 | 27.22° C | 62% | 1017.7 hPa | 0 mm | - | 288 W/m² | - |
| 1787866386 | 27.22° C | 63% | 1017.8 hPa | 0 mm | - | 297 W/m² | - |
| 1787866080 | 26.11° C | 66% | 1017.9 hPa | 0 mm | - | 314 W/m² | - |
| 1787865775 | 25.56° C | 65% | 1017.8 hPa | 0 mm | - | 348 W/m² | - |
| 1787865471 | 25.56° C | 64% | 1018 hPa | 0 mm | - | 44 W/m² | - |
* Rain latest hour (hover to see other rain measurements)
** Current wind speed in m/s (hover to see current wind gust speed)